Hobbs, NM

7:58 PM MDT on August 01, 2015 (GMT -0600)
NW Hobbs NM | | Change Station
CLOSE
Current Station
Personal Weather Station
Location: Hobbs, NM
Elevation: 3637 ft
Nearby Weather Stations

Elev 3637 ft 32.74 °N, 103.15 °W | Updated 0 second ago

Overcast
Overcast
77.7 °F
Feels Like 79 °F
N
8.0
Wind Variable Wind from ENE
Gusts 15.0 mph

Today
High -- | Low -- °F
--% Chance of Precip.
Yesterday
High -- | Low -- °F
Precip. -- in
6:06 AM 7:51 PM
Waning Gibbous, 96% visible
Pressure 30.06 in
Visibility 10.0 miles
Clouds Mostly Cloudy 12000 ft
Heat Index 79 °F
Dew Point 64 °F
Humidity 62%
Rainfall 0.07 in
Snow Depth Not available.
UV 0 out of 12
Pollen 4.60 out of 12
Air Quality Not available.
Flu Activity Not available.
METAR KHOB 020155Z AUTO 07010KT 10SM BKN120 25/17 A3006 RMK AO2

More Conditions Fewer Conditions

Pressure 30.06 in
Visibility 10.0 miles
Clouds Mostly Cloudy 12000 ft
Heat Index 79 °F
Dew Point 64 °F
Humidity 62%
Rainfall 0.07 in
Snow Depth Not available.
UV 0 out of 12
Pollen 4.60 out of 12
Air Quality Not available.
Flu Activity Not available.
METAR KHOB 020155Z AUTO 07010KT 10SM BKN120 25/17 A3006 RMK AO2

More Conditions Fewer Conditions

10-Day Weather Forecast

×

Almanac

Astronomy

Aug. 01, 2015 Rise Set
Actual Time
Civil Twilight
Nautical Twilight
Astronomical Twilight
Moon
Length of Visible Light
Length of Day
Tomorrow will be .
, % of the Moon is Illuminated

Today's Extremes

State Highs State Lows

Community

WunderPhotos

Upload Photos

1,843,127 photos uploaded!

WunderBlogs® & News

Nearby

Air Quality

  Air Quality AQ Index Pollutant
Not available.

Snow Depth

Station Depth Elevation

Earthquake Activity

City Distance Mag. Time & Date
Minimum magnitude displayed is 2.5.

Coastal Water Temperatures

Place Temperature

Stations

Nearby Weather Stations

Station Location Temp. Windchill Dew Point Humidity Wind Precip. Elev Updated Type